createdAt,value
2022-10-31T00:03:02.170Z,11.10
2022-10-31T00:08:05.167Z,11.10
2022-10-31T00:13:08.507Z,11.00
2022-10-31T00:18:12.950Z,11.10
2022-10-31T00:23:15.704Z,11.10
2022-10-31T00:33:23.466Z,11.00
2022-10-31T00:38:26.198Z,10.90
2022-10-31T00:43:29.231Z,10.90
2022-10-31T00:48:33.577Z,11.00
2022-10-31T00:53:36.696Z,10.80
2022-10-31T00:58:39.478Z,10.80
2022-10-31T01:03:43.623Z,10.80
2022-10-31T01:08:48.666Z,10.90
2022-10-31T01:13:53.913Z,10.90
2022-10-31T01:18:58.118Z,10.70
2022-10-31T01:24:02.954Z,10.60
2022-10-31T01:29:08.275Z,10.50
2022-10-31T01:34:15.492Z,10.50
2022-10-31T01:39:18.905Z,10.50
2022-10-31T01:44:51.732Z,10.40
2022-10-31T01:49:58.642Z,10.40
2022-10-31T01:55:05.320Z,10.30
2022-10-31T02:00:11.673Z,10.50
2022-10-31T02:05:19.202Z,10.40
2022-10-31T02:10:24.378Z,10.20
2022-10-31T02:15:27.502Z,10.10
2022-10-31T02:20:36.471Z,10.00
2022-10-31T02:26:00.355Z,9.90
2022-10-31T02:31:15.939Z,9.90
2022-10-31T02:36:26.236Z,9.90
2022-10-31T02:41:36.847Z,9.70
2022-10-31T02:46:50.563Z,9.70
2022-10-31T02:51:53.472Z,9.60
2022-10-31T02:57:01.152Z,9.60
2022-10-31T03:02:18.215Z,9.60
2022-10-31T03:07:27.756Z,9.60
2022-10-31T03:12:36.652Z,9.60
2022-10-31T03:17:47.917Z,9.60
2022-10-31T03:22:50.703Z,9.50
2022-10-31T03:27:54.210Z,9.70
2022-10-31T03:33:02.172Z,9.80
2022-10-31T03:38:07.807Z,9.80
2022-10-31T03:43:16.871Z,9.70
2022-10-31T03:48:22.626Z,9.70
2022-10-31T03:53:28.566Z,9.50
2022-10-31T03:58:38.256Z,9.40
2022-10-31T04:03:43.397Z,9.30
2022-10-31T04:08:50.603Z,9.30
2022-10-31T04:13:55.090Z,9.10
2022-10-31T04:18:59.366Z,9.10
2022-10-31T04:24:02.162Z,9.10
2022-10-31T04:29:04.985Z,8.90
2022-10-31T04:34:09.256Z,8.90
2022-10-31T04:39:11.987Z,8.80
2022-10-31T04:44:14.770Z,8.70
2022-10-31T04:49:18.815Z,8.70
2022-10-31T04:54:21.601Z,8.80
2022-10-31T04:59:24.600Z,8.80
2022-10-31T05:04:28.800Z,8.90
2022-10-31T05:09:31.725Z,8.70
2022-10-31T05:14:34.431Z,8.70
2022-10-31T05:19:38.543Z,8.60
2022-10-31T05:24:41.335Z,8.80
2022-10-31T05:29:44.111Z,8.80
2022-10-31T05:34:48.276Z,8.70
2022-10-31T05:39:50.995Z,8.60
2022-10-31T05:44:53.744Z,8.50
2022-10-31T05:49:57.835Z,8.50
2022-10-31T05:55:00.625Z,8.60
2022-10-31T06:00:03.648Z,8.60
2022-10-31T06:05:08.419Z,8.60
2022-10-31T06:10:11.664Z,8.70
2022-10-31T06:15:16.136Z,8.80
2022-10-31T06:20:22.777Z,8.90
2022-10-31T06:25:25.688Z,9.00
2022-10-31T06:30:28.564Z,9.00
2022-10-31T06:35:33.152Z,9.10
2022-10-31T06:40:35.894Z,9.20
2022-10-31T06:45:38.829Z,9.30
2022-10-31T06:50:42.968Z,9.50
2022-10-31T06:55:45.745Z,9.60
2022-10-31T07:00:48.643Z,9.90
2022-10-31T07:05:52.761Z,10.10
2022-10-31T07:10:57.129Z,10.40
2022-10-31T07:16:03.118Z,11.10
2022-10-31T07:21:07.697Z,11.60
2022-10-31T07:26:12.022Z,13.20
2022-10-31T07:31:14.768Z,16.10
2022-10-31T07:36:18.990Z,18.90
2022-10-31T07:41:22.658Z,21.30
2022-10-31T07:46:25.487Z,23.20
2022-10-31T07:51:29.588Z,23.60
2022-10-31T07:56:32.342Z,24.30
2022-10-31T08:01:35.182Z,25.60
2022-10-31T08:06:39.265Z,26.50
2022-10-31T08:11:42.007Z,27.70
2022-10-31T08:16:44.758Z,29.00
2022-10-31T08:21:52.011Z,30.40
2022-10-31T08:26:54.838Z,32.00
2022-10-31T08:31:59.846Z,32.30
2022-10-31T08:37:03.998Z,32.80
2022-10-31T08:42:06.793Z,34.10
2022-10-31T08:47:09.607Z,35.40
2022-10-31T08:52:15.707Z,35.90
2022-10-31T08:57:18.458Z,36.20
2022-10-31T09:02:21.253Z,36.70
2022-10-31T09:07:25.410Z,38.20
2022-10-31T09:12:28.138Z,38.50
2022-10-31T09:17:31.017Z,36.40
2022-10-31T09:22:35.156Z,36.60
2022-10-31T09:27:37.955Z,35.80
2022-10-31T09:32:40.697Z,38.10
2022-10-31T09:37:44.733Z,40.50
2022-10-31T09:42:56.812Z,41.20
2022-10-31T09:48:22.689Z,41.10
2022-10-31T09:53:31.570Z,42.10
2022-10-31T09:58:39.595Z,42.60
2022-10-31T10:03:47.320Z,43.10
2022-10-31T10:08:51.743Z,43.60
2022-10-31T10:14:06.556Z,44.60
2022-10-31T10:19:21.586Z,44.70
2022-10-31T10:24:36.515Z,44.70
2022-10-31T10:29:45.172Z,43.60
2022-10-31T10:34:52.001Z,44.40
2022-10-31T10:40:00.880Z,45.60
2022-10-31T10:45:34.172Z,45.30
2022-10-31T10:50:41.459Z,46.40
2022-10-31T10:55:52.976Z,47.20
2022-10-31T11:00:57.474Z,47.40
2022-10-31T11:06:02.092Z,46.90
2022-10-31T11:11:15.790Z,46.40
2022-10-31T11:16:34.475Z,46.50
2022-10-31T11:21:39.617Z,47.50
2022-10-31T11:26:45.660Z,45.80
2022-10-31T11:31:49.381Z,46.20
2022-10-31T11:36:52.241Z,46.90
2022-10-31T11:41:57.147Z,46.70
2022-10-31T11:47:02.797Z,46.40
2022-10-31T11:52:08.618Z,47.00
2022-10-31T11:57:26.435Z,46.20
2022-10-31T12:02:29.702Z,44.70
2022-10-31T12:07:32.956Z,44.90
2022-10-31T12:12:55.779Z,41.70
2022-10-31T12:18:20.105Z,39.70
2022-10-31T12:23:31.113Z,40.00
2022-10-31T12:28:55.137Z,40.00
2022-10-31T12:34:12.601Z,39.50
2022-10-31T12:39:29.910Z,40.20
2022-10-31T12:45:06.814Z,40.90
2022-10-31T12:50:30.211Z,38.70
2022-10-31T12:55:47.797Z,38.60
2022-10-31T13:01:02.505Z,40.50
2022-10-31T13:06:10.407Z,40.30
2022-10-31T13:11:17.497Z,39.90
2022-10-31T13:16:27.591Z,39.20
2022-10-31T13:21:36.228Z,38.90
2022-10-31T13:26:42.755Z,38.20
2022-10-31T13:31:46.920Z,39.40
2022-10-31T13:36:57.897Z,39.30
2022-10-31T13:42:06.322Z,35.70
2022-10-31T13:47:26.005Z,34.60
2022-10-31T13:52:30.086Z,35.10
2022-10-31T13:57:36.727Z,37.30
2022-10-31T14:02:48.668Z,37.10
2022-10-31T14:07:53.372Z,35.30
2022-10-31T14:13:05.458Z,34.20
2022-10-31T14:18:23.548Z,34.30
2022-10-31T14:23:41.010Z,34.00
2022-10-31T14:28:43.845Z,32.80
2022-10-31T14:33:48.275Z,31.20
2022-10-31T14:38:59.024Z,29.40
2022-10-31T14:44:39.742Z,28.50
2022-10-31T14:50:09.337Z,27.50
2022-10-31T14:55:14.952Z,25.80
2022-10-31T15:00:20.573Z,24.30
2022-10-31T15:05:25.228Z,23.20
2022-10-31T15:10:32.973Z,22.40
2022-10-31T15:15:36.145Z,21.70
2022-10-31T15:20:45.227Z,21.10
2022-10-31T15:25:48.509Z,20.80
2022-10-31T15:30:53.586Z,20.30
2022-10-31T15:35:59.929Z,19.80
2022-10-31T15:41:05.193Z,19.50
2022-10-31T15:46:11.092Z,19.10
2022-10-31T15:51:15.733Z,19.10
2022-10-31T15:56:23.628Z,18.70
2022-10-31T16:01:28.501Z,18.40
2022-10-31T16:06:33.742Z,18.10
2022-10-31T16:11:38.976Z,17.90
2022-10-31T16:16:43.999Z,17.70
2022-10-31T16:21:50.094Z,17.70
2022-10-31T16:26:54.825Z,17.50
2022-10-31T16:31:57.644Z,17.20
2022-10-31T16:37:04.008Z,17.30
2022-10-31T16:42:06.945Z,17.20
2022-10-31T16:47:14.250Z,16.90
2022-10-31T16:52:18.600Z,17.10
2022-10-31T16:57:31.554Z,16.90
2022-10-31T17:02:35.167Z,16.80
2022-10-31T17:07:39.417Z,16.70
2022-10-31T17:12:45.423Z,16.60
2022-10-31T17:17:48.171Z,16.40
2022-10-31T17:22:52.388Z,16.10
2022-10-31T17:27:55.274Z,15.80
2022-10-31T17:32:58.502Z,15.80
2022-10-31T17:38:02.772Z,15.60
2022-10-31T17:43:05.926Z,15.70
2022-10-31T17:48:10.374Z,16.00
2022-10-31T17:53:14.551Z,15.90
2022-10-31T17:58:17.334Z,15.50
2022-10-31T18:03:20.105Z,15.30
2022-10-31T18:08:27.443Z,15.20
2022-10-31T18:13:30.216Z,15.30
2022-10-31T18:18:32.974Z,15.30
2022-10-31T18:23:37.120Z,15.50
2022-10-31T18:28:39.917Z,15.60
2022-10-31T18:33:43.293Z,15.40
2022-10-31T18:38:47.444Z,15.30
2022-10-31T18:43:50.209Z,15.10
2022-10-31T18:48:53.149Z,15.00
2022-10-31T18:53:59.825Z,14.90
2022-10-31T18:59:03.150Z,14.80
2022-10-31T19:04:06.223Z,14.70
2022-10-31T19:09:10.404Z,14.60
2022-10-31T19:14:14.926Z,14.50
2022-10-31T19:19:19.010Z,14.30
2022-10-31T19:24:23.108Z,14.00
2022-10-31T19:29:25.957Z,13.80
2022-10-31T19:34:28.701Z,13.60
2022-10-31T19:39:32.878Z,13.80
2022-10-31T19:44:35.671Z,13.60
2022-10-31T19:49:38.488Z,13.40
2022-10-31T19:54:42.624Z,13.20
2022-10-31T19:59:48.400Z,13.20
2022-10-31T20:04:51.275Z,13.30
2022-10-31T20:09:56.266Z,13.60
2022-10-31T20:14:59.116Z,13.60
2022-10-31T20:20:07.070Z,13.50
2022-10-31T20:25:11.378Z,13.50
2022-10-31T20:30:15.146Z,13.60
2022-10-31T20:35:20.655Z,13.50
2022-10-31T20:40:27.559Z,13.70
2022-10-31T20:45:30.350Z,13.60
2022-10-31T20:50:33.097Z,13.60
2022-10-31T20:55:37.254Z,13.30
2022-10-31T21:00:40.305Z,13.20
2022-10-31T21:05:43.106Z,13.40
2022-10-31T21:10:47.291Z,13.20
2022-10-31T21:15:59.585Z,13.10
2022-10-31T21:27:51.591Z,13.50
2022-10-31T21:33:01.331Z,13.30
2022-10-31T21:38:44.250Z,13.10
2022-10-31T21:44:33.540Z,13.00
2022-10-31T21:49:48.541Z,12.90
2022-10-31T21:55:06.759Z,12.90
2022-10-31T22:06:52.187Z,12.40
2022-10-31T22:12:13.094Z,12.20
2022-10-31T22:17:21.457Z,12.00
2022-10-31T22:22:37.989Z,11.90
2022-10-31T22:27:45.449Z,11.90
2022-10-31T22:32:54.628Z,11.90
2022-10-31T22:43:26.474Z,11.70
2022-10-31T22:48:49.501Z,11.80
2022-10-31T22:54:14.902Z,11.70
2022-10-31T22:59:27.439Z,11.60
2022-10-31T23:04:36.123Z,11.60
2022-10-31T23:09:47.596Z,11.80
2022-10-31T23:14:59.755Z,11.80
2022-10-31T23:20:07.041Z,12.10
2022-10-31T23:25:36.498Z,12.30
2022-10-31T23:30:42.834Z,12.60
2022-10-31T23:35:54.362Z,13.00
2022-10-31T23:41:01.499Z,13.30
2022-10-31T23:46:12.506Z,13.40
2022-10-31T23:51:22.894Z,13.60
2022-10-31T23:56:44.378Z,13.70
